Time;durP1;ratioP1;P1;durP2;ratioP2;P2;SDS_P1;SDS_P2;PMS_P1;PMS_P2;Temp;Humidity;BMP_temperature;BMP_pressure;BME280_temperature;BME280_humidity;BME280_pressure;Samples;Min_cycle;Max_cycle;Signal;HPM_P1;HPM_P2
2022/07/28 00:01:09;;;;;;;1.48;1.00;;;19.80;53.40;;;19.67;61.70;100485.66;5028400;28;20055;-76
2022/07/28 00:03:36;;;;;;;3.13;1.27;;;19.80;53.50;;;19.57;65.33;100480.00;5027915;28;20053;-77
2022/07/28 00:06:03;;;;;;;3.92;1.40;;;19.70;54.20;;;19.62;64.09;100477.91;5011391;28;20060;-77
2022/07/28 00:08:30;;;;;;;4.05;1.65;;;19.70;54.00;;;19.42;67.96;100479.09;5027787;28;20037;-77
2022/07/28 00:10:57;;;;;;;1.45;1.10;;;19.70;54.60;;;19.41;69.53;100485.38;5027373;28;20548;-77
2022/07/28 00:13:24;;;;;;;2.15;1.20;;;19.60;54.80;;;19.21;69.41;100483.94;5027711;28;20045;-77
2022/07/28 00:15:51;;;;;;;2.63;1.75;;;19.50;54.60;;;19.18;68.67;100479.63;5011254;28;20061;-78
2022/07/28 00:18:18;;;;;;;3.60;1.23;;;19.40;54.50;;;19.13;70.61;100482.53;5011453;28;20060;-77
2022/07/28 00:20:45;;;;;;;2.88;1.42;;;19.40;55.00;;;19.10;71.48;100477.41;5010570;28;20049;-77
2022/07/28 00:23:12;;;;;;;5.80;1.60;;;19.30;55.20;;;19.10;72.38;100479.19;5027667;28;20045;-77
2022/07/28 00:25:39;;;;;;;2.85;1.40;;;19.60;55.60;;;19.04;74.20;100484.91;5026583;28;20048;-77
2022/07/28 00:28:06;;;;;;;2.40;1.30;;;19.20;55.60;;;19.01;74.10;100477.09;5032784;28;20490;-77
2022/07/28 00:30:33;;;;;;;3.05;1.30;;;19.20;55.70;;;18.99;74.19;100482.50;5027964;28;20045;-77
2022/07/28 00:33:00;;;;;;;3.63;1.30;;;19.20;55.80;;;19.17;70.69;100483.25;5015100;28;20145;-76
2022/07/28 00:35:30;;;;;;;5.20;1.33;;;19.20;55.50;;;19.27;69.19;100479.06;5015968;28;20124;-77
2022/07/28 00:37:59;;;;;;;3.00;1.40;;;19.20;55.40;;;19.20;69.57;100484.84;5052452;28;20052;-77
2022/07/28 00:43:14;;;;;;;5.75;1.60;;;19.20;55.30;;;19.02;75.47;100484.97;5048823;28;20421;-76
2022/07/28 00:45:42;;;;;;;2.63;1.20;;;19.40;56.30;;;18.97;77.22;100479.03;5048423;28;20083;-77
2022/07/28 00:48:09;;;;;;;3.08;1.25;;;19.20;56.30;;;18.91;79.22;100479.38;5031955;28;20449;-78
2022/07/28 00:50:39;;;;;;;4.30;1.52;;;19.10;56.70;;;18.90;77.21;100465.19;5047963;28;20041;-78
2022/07/28 00:53:07;;;;;;;5.82;1.77;;;19.10;56.60;;;18.77;77.88;100474.81;5031686;28;20041;-77
2022/07/28 00:55:37;;;;;;;3.22;1.20;;;19.10;56.70;;;18.77;74.71;100478.38;5033905;28;20072;-77
2022/07/28 00:58:26;;;;;;;2.70;1.30;;;19.00;56.20;;;18.83;74.56;100477.16;5028920;28;20041;-77
2022/07/28 01:00:54;;;;;;;2.92;1.27;;;18.90;56.20;;;18.83;78.43;100470.00;5028155;28;20492;-77
2022/07/28 01:03:23;;;;;;;3.72;1.38;;;18.90;56.80;;;18.80;79.90;100470.19;5028040;28;20052;-77
2022/07/28 01:06:30;;;;;;;2.30;1.30;;;18.90;57.20;;;18.82;81.29;100468.28;4995785;28;20589;-77
2022/07/28 01:09:22;;;;;;;2.17;1.20;;;18.90;57.40;;;18.87;77.64;100460.03;5027111;28;20136;-76
2022/07/28 01:12:18;;;;;;;4.40;1.50;;;18.90;57.10;;;18.85;77.42;100468.09;5028122;28;20045;-78
2022/07/28 01:15:06;;;;;;;3.00;1.20;;;18.90;57.10;;;18.78;79.78;100460.56;5028190;28;20037;-77
2022/07/28 01:18:01;;;;;;;2.25;1.15;;;18.90;57.40;;;18.64;82.19;100459.53;5028128;28;20044;-78
2022/07/28 01:20:39;;;;;;;1.95;1.15;;;18.80;57.70;;;18.69;79.19;100453.94;5026970;28;20500;-77
2022/07/28 01:23:31;;;;;;;2.47;1.23;;;18.80;57.50;;;18.71;78.27;100452.91;5011930;28;20418;-77
2022/07/28 01:26:50;;;;;;;3.13;1.50;;;18.80;57.50;;;18.80;79.67;100448.88;5025483;28;20147;-77
2022/07/28 01:30:10;;;;;;;6.57;1.75;;;18.80;57.40;;;18.61;82.94;100442.88;5048105;28;20037;-77
2022/07/28 01:32:51;;;;;;;4.20;1.30;;;18.80;58.10;;;18.55;84.61;100444.06;4971795;28;20046;-76
2022/07/28 01:35:27;;;;;;;3.15;1.40;;;18.70;58.20;;;18.50;86.13;100443.47;4972759;28;20407;-78
2022/07/28 01:38:00;;;;;;;2.80;1.20;;;18.70;58.60;;;18.54;85.67;100440.53;5020377;28;20155;-78
2022/07/28 01:40:32;;;;;;;1.63;1.00;;;18.60;58.70;;;18.55;84.82;100441.41;5032994;28;20048;-78
2022/07/28 01:43:06;;;;;;;3.58;1.10;;;18.60;58.70;;;18.59;86.90;100445.63;5033115;28;20518;-77
2022/07/28 01:45:37;;;;;;;3.50;1.20;;;18.60;58.90;;;18.63;86.40;100447.16;5033181;28;20072;-79
2022/07/28 01:48:05;;;;;;;2.22;1.40;;;18.60;59.10;;;18.77;85.40;100440.19;5031092;28;20055;-78
2022/07/28 01:50:33;;;;;;;3.00;1.45;;;18.70;59.20;;;18.76;85.80;100443.78;5030143;28;20049;-78
2022/07/28 01:53:01;;;;;;;3.63;1.35;;;18.80;59.30;;;18.69;86.84;100445.94;5030976;28;20053;-78
2022/07/28 01:55:29;;;;;;;1.92;1.10;;;18.80;59.30;;;18.64;86.26;100442.69;5048377;28;20108;-78
2022/07/28 01:57:58;;;;;;;2.33;1.50;;;18.80;59.40;;;18.58;88.45;100433.25;5030589;28;20045;-79
2022/07/28 02:00:26;;;;;;;2.47;1.23;;;18.70;59.60;;;18.55;92.10;100441.41;5025887;28;20103;-78
2022/07/28 02:02:56;;;;;;;3.25;1.30;;;18.70;60.20;;;18.60;87.14;100438.50;5026921;28;20056;-78
2022/07/28 02:05:24;;;;;;;2.10;1.43;;;18.70;59.50;;;18.60;86.61;100430.50;5010724;28;20052;-79
2022/07/28 02:07:54;;;;;;;3.65;1.67;;;18.70;59.90;;;18.56;92.28;100427.13;5027661;28;20284;-78
2022/07/28 02:10:22;;;;;;;4.72;1.50;;;18.70;60.50;;;18.47;93.67;100422.31;5026938;28;20047;-78
2022/07/28 02:12:51;;;;;;;2.88;1.33;;;18.60;60.90;;;18.40;93.40;100424.47;5010806;28;20037;-78
2022/07/28 02:15:21;;;;;;;1.67;1.30;;;18.60;60.90;;;18.37;93.98;100416.66;5010427;28;20045;-79
2022/07/28 02:17:50;;;;;;;3.10;1.07;;;18.50;61.10;;;18.42;94.04;100425.28;5011196;28;20041;-78
2022/07/28 02:20:18;;;;;;;2.58;1.20;;;18.50;61.40;;;18.34;93.72;100425.69;4994066;28;20046;-78
2022/07/28 02:22:47;;;;;;;2.47;1.25;;;18.50;61.30;;;18.27;92.96;100409.19;5029923;28;20168;-79
2022/07/28 02:25:19;;;;;;;2.40;1.58;;;18.50;61.50;;;18.28;96.17;100412.69;5040178;28;20053;-78
2022/07/28 02:27:57;;;;;;;1.92;1.30;;;18.90;62.40;;;18.30;95.58;100412.63;5034155;28;20041;-78
2022/07/28 02:30:36;;;;;;;2.28;1.30;;;18.40;62.20;;;18.32;97.88;100405.41;5049928;28;20045;-78
2022/07/28 02:33:11;;;;;;;2.63;1.40;;;18.40;62.80;;;18.22;96.23;100415.72;5052080;28;20130;-78
2022/07/28 02:35:59;;;;;;;3.05;1.27;;;18.40;62.60;;;18.25;97.01;100408.41;5033956;28;20581;-78
2022/07/28 02:38:38;;;;;;;5.95;1.40;;;18.40;63.30;;;18.12;99.99;100410.91;5052120;28;20733;-78
2022/07/28 02:41:26;;;;;;;4.03;1.77;;;18.30;63.60;;;18.15;98.17;100404.56;5049889;28;20044;-78
2022/07/28 02:43:58;;;;;;;1.92;1.35;;;18.30;63.50;;;18.07;100.00;100399.66;5049912;28;20041;-78
2022/07/28 02:46:37;;;;;;;2.40;1.30;;;18.20;64.30;;;18.00;100.00;100401.75;5050917;28;20048;-78
2022/07/28 02:49:29;;;;;;;2.05;1.55;;;18.20;64.10;;;18.09;100.00;100400.41;5034508;28;20097;-78
2022/07/28 02:51:59;;;;;;;3.38;1.58;;;18.20;64.40;;;18.06;100.00;100403.25;5035288;28;20513;-78
2022/07/28 02:54:28;;;;;;;2.03;1.50;;;18.20;65.10;;;18.11;100.00;100405.66;5046323;28;20038;-78
2022/07/28 02:56:59;;;;;;;2.97;1.50;;;18.20;64.80;;;18.18;96.01;100401.72;5029623;28;20224;-78
2022/07/28 02:59:28;;;;;;;3.17;1.70;;;18.10;64.00;;;18.14;99.90;100394.84;5046066;28;20050;-78
2022/07/28 03:01:56;;;;;;;3.22;2.10;;;18.20;65.00;;;18.12;100.00;100402.06;5046866;28;20061;-78
2022/07/28 03:07:10;;;;;;;3.22;1.23;;;18.20;65.60;;;18.04;100.00;100399.81;5044706;28;20057;-79
2022/07/28 03:09:44;;;;;;;3.25;1.63;;;18.20;66.20;;;18.00;100.00;100406.19;5046419;28;20049;-78
2022/07/28 03:12:12;;;;;;;3.53;1.40;;;18.10;66.40;;;17.96;100.00;100418.84;5046410;28;20033;-78
2022/07/28 03:14:40;;;;;;;4.43;1.90;;;18.10;65.70;;;17.96;100.00;100413.53;5046557;28;20042;-78
2022/07/28 03:17:07;;;;;;;3.53;1.58;;;18.00;65.80;;;17.91;100.00;100412.88;5032407;28;20043;-79
2022/07/28 03:19:35;;;;;;;4.85;1.70;;;18.00;66.90;;;17.78;100.00;100411.81;5045917;28;20068;-79
2022/07/28 03:22:03;;;;;;;3.95;1.45;;;18.00;67.40;;;17.86;100.00;100414.94;5046422;28;20048;-78
2022/07/28 03:24:36;;;;;;;6.25;1.42;;;18.00;68.00;;;17.82;100.00;100416.06;5029385;28;20693;-78
2022/07/28 03:27:29;;;;;;;2.75;1.60;;;17.90;68.40;;;17.69;100.00;100411.41;5049521;28;20049;-78
2022/07/28 03:30:07;;;;;;;3.35;1.70;;;17.90;68.50;;;17.70;100.00;100421.09;5035675;28;20045;-78
2022/07/28 03:32:39;;;;;;;5.40;1.45;;;17.80;69.10;;;17.67;100.00;100418.59;5049381;28;20589;-79
2022/07/28 03:35:07;;;;;;;5.03;1.73;;;17.80;69.50;;;17.70;100.00;100418.44;5049180;28;20049;-79
2022/07/28 03:38:10;;;;;;;2.47;1.40;;;17.80;69.80;;;17.74;100.00;100416.47;5033176;28;20041;-78
2022/07/28 03:40:38;;;;;;;3.00;1.20;;;17.80;69.20;;;17.73;100.00;100417.41;5049002;28;20049;-78
2022/07/28 03:43:17;;;;;;;3.28;1.35;;;17.80;70.10;;;17.69;100.00;100413.19;5033580;28;20052;-78
2022/07/28 03:45:46;;;;;;;4.38;1.35;;;17.80;69.80;;;17.52;100.00;100420.25;5049918;28;20049;-78
2022/07/28 03:48:14;;;;;;;5.23;1.70;;;17.70;69.90;;;17.50;100.00;100418.63;5020226;28;20072;-78
2022/07/28 03:50:41;;;;;;;2.63;1.40;;;17.70;70.90;;;17.45;100.00;100413.56;5055720;28;20305;-78
2022/07/28 03:53:34;;;;;;;4.35;1.70;;;17.60;71.50;;;17.51;100.00;100407.06;5055888;28;20043;-78
2022/07/28 03:56:02;;;;;;;6.47;1.60;;;17.60;71.30;;;17.62;100.00;100409.13;5044226;28;20498;-78
2022/07/28 03:58:29;;;;;;;2.70;1.52;;;17.70;71.10;;;17.55;100.00;100414.75;5045310;28;20046;-78
2022/07/28 04:00:57;;;;;;;2.60;1.52;;;17.60;71.60;;;17.58;100.00;100417.28;5025389;28;20045;-78
2022/07/28 04:03:25;;;;;;;6.65;1.65;;;17.70;72.00;;;17.57;100.00;100415.56;5028939;28;20571;-78
2022/07/28 04:06:14;;;;;;;2.85;1.63;;;17.70;72.50;;;17.53;100.00;100414.00;5037710;28;20055;-78
2022/07/28 04:08:43;;;;;;;6.20;1.58;;;17.70;72.90;;;17.53;100.00;100414.00;5051722;28;20128;-79
2022/07/28 04:11:10;;;;;;;2.55;1.30;;;17.60;72.80;;;17.51;100.00;100410.56;5015520;28;20045;-78
2022/07/28 04:13:37;;;;;;;4.72;1.60;;;17.60;73.10;;;17.55;100.00;100406.78;5031887;28;20056;-78
2022/07/28 04:16:05;;;;;;;2.47;1.63;;;17.70;72.90;;;17.46;100.00;100404.63;5031978;28;20053;-78
2022/07/28 04:18:33;;;;;;;4.30;1.48;;;17.70;73.40;;;17.49;100.00;100407.13;5031376;28;20134;-78
2022/07/28 04:21:01;;;;;;;4.85;1.65;;;17.60;73.30;;;17.38;100.00;100401.50;5047369;28;20041;-78
2022/07/28 04:23:28;;;;;;;2.83;1.30;;;17.70;73.90;;;17.34;100.00;100411.44;5015049;28;20044;-78
2022/07/28 04:25:55;;;;;;;7.85;2.00;;;17.60;74.80;;;17.37;100.00;100413.94;5025962;28;20044;-78
2022/07/28 04:28:23;;;;;;;3.45;1.50;;;17.60;74.90;;;17.35;100.00;100413.16;5049511;28;20047;-79
2022/07/28 04:30:50;;;;;;;2.42;1.50;;;17.50;74.90;;;17.48;100.00;100412.50;5031077;28;20584;-78
2022/07/28 04:33:18;;;;;;;8.50;1.65;;;17.50;74.40;;;17.47;100.00;100414.31;5031515;28;20044;-78
2022/07/28 04:35:46;;;;;;;4.53;1.40;;;17.60;74.70;;;17.58;100.00;100417.28;5031474;28;20045;-79
2022/07/28 04:38:13;;;;;;;4.97;2.25;;;17.60;74.30;;;17.61;100.00;100412.75;5031150;28;20514;-77
2022/07/28 04:40:41;;;;;;;4.65;1.52;;;17.70;74.30;;;17.69;100.00;100414.06;5047612;28;20052;-78
2022/07/28 04:43:09;;;;;;;7.70;2.28;;;17.70;74.70;;;17.78;100.00;100410.03;5048313;28;20041;-78
2022/07/28 04:45:36;;;;;;;6.07;1.70;;;17.70;74.80;;;17.77;100.00;100418.09;5049265;28;20064;-78
2022/07/28 04:48:04;;;;;;;3.47;1.50;;;17.80;75.50;;;17.84;100.00;100422.16;5034747;28;20817;-79
2022/07/28 04:50:31;;;;;;;3.58;1.83;;;17.80;74.90;;;17.85;100.00;100416.75;5031924;28;20033;-77
2022/07/28 04:52:59;;;;;;;9.77;1.98;;;17.80;75.10;;;17.86;100.00;100423.78;5047773;28;20048;-77
2022/07/28 04:55:26;;;;;;;6.20;1.73;;;17.90;75.90;;;17.85;100.00;100421.22;5041256;28;20133;-78
2022/07/28 04:57:53;;;;;;;4.82;1.67;;;17.90;76.30;;;17.99;100.00;100412.47;5034119;28;20065;-77
2022/07/28 05:00:21;;;;;;;3.72;1.48;;;18.00;75.40;;;18.07;100.00;100420.94;5011163;28;20453;-77
2022/07/28 05:02:50;;;;;;;2.00;1.38;;;18.00;75.10;;;18.04;100.00;100407.81;5027418;28;20391;-77
2022/07/28 05:05:17;;;;;;;5.40;1.85;;;18.10;74.40;;;18.04;100.00;100417.59;5011430;28;20037;-77
2022/07/28 05:07:44;;;;;;;6.20;1.60;;;18.10;75.10;;;17.98;100.00;100416.94;5043685;28;20099;-77
2022/07/28 05:10:11;;;;;;;5.85;1.95;;;18.10;76.30;;;18.13;100.00;100412.59;5043124;28;20052;-77
2022/07/28 05:12:39;;;;;;;3.40;1.60;;;18.20;75.90;;;18.13;100.00;100415.28;5027287;28;20064;-77
2022/07/28 05:15:08;;;;;;;3.08;1.50;;;18.10;76.50;;;18.30;100.00;100405.47;5043433;28;20049;-77
2022/07/28 05:17:35;;;;;;;10.98;2.08;;;18.30;75.80;;;18.37;100.00;100408.66;5034975;28;20048;-78
2022/07/28 05:20:04;;;;;;;3.28;1.42;;;18.30;75.50;;;18.47;100.00;100406.34;5040425;28;20049;-77
2022/07/28 05:22:46;;;;;;;4.82;1.98;;;18.40;75.10;;;18.53;100.00;100406.00;5014781;28;20083;-78
2022/07/28 05:25:20;;;;;;;4.00;1.40;;;18.40;74.60;;;18.55;100.00;100409.44;5032335;28;20045;-78
2022/07/28 05:27:48;;;;;;;3.20;1.40;;;18.50;74.60;;;18.69;100.00;100401.50;5027063;28;20462;-78
2022/07/28 05:30:17;;;;;;;11.07;1.92;;;18.60;74.90;;;18.80;100.00;100406.22;5026751;28;20037;-78
2022/07/28 05:32:44;;;;;;;8.75;1.90;;;18.70;74.60;;;18.79;100.00;100412.50;5028287;28;20413;-77
2022/07/28 05:35:12;;;;;;;5.97;2.17;;;18.70;74.30;;;18.89;100.00;100415.50;5026676;28;20045;-77
2022/07/28 05:37:39;;;;;;;2.70;1.58;;;18.90;74.80;;;19.06;100.00;100413.66;5044467;28;20059;-78
2022/07/28 05:40:13;;;;;;;7.07;2.25;;;18.90;74.20;;;19.14;97.92;100414.09;5028845;28;20059;-78
2022/07/28 05:42:42;;;;;;;4.50;1.73;;;19.00;73.40;;;19.23;95.64;100416.19;5029772;28;20052;-77
2022/07/28 05:45:11;;;;;;;7.22;1.70;;;19.10;73.10;;;19.24;96.33;100425.91;5010596;28;20045;-77
2022/07/28 05:47:48;;;;;;;7.10;1.80;;;19.20;73.10;;;19.34;95.13;100420.03;5011982;28;20053;-77
2022/07/28 05:50:17;;;;;;;4.82;1.70;;;19.20;72.60;;;19.40;93.69;100419.66;4993275;28;20071;-76
2022/07/28 05:52:47;;;;;;;6.65;1.80;;;19.30;72.50;;;19.41;93.58;100421.38;5027772;28;20059;-77
2022/07/28 05:55:15;;;;;;;3.00;1.65;;;19.90;72.70;;;19.42;91.46;100413.28;5009541;28;20045;-76
2022/07/28 05:57:42;;;;;;;2.50;1.33;;;19.30;72.00;;;19.48;87.44;100422.72;5009761;28;20041;-77
2022/07/28 06:00:21;;;;;;;3.45;1.42;;;19.40;71.20;;;19.49;88.58;100421.78;5029328;28;20041;-76
2022/07/28 06:02:50;;;;;;;2.83;1.42;;;19.40;71.30;;;19.58;87.88;100428.34;5047601;28;20128;-76
2022/07/28 06:05:19;;;;;;;3.58;1.83;;;19.40;71.20;;;19.56;87.26;100416.91;5045408;28;20045;-76
2022/07/28 06:07:49;;;;;;;5.47;1.90;;;19.50;71.10;;;19.62;88.34;100419.19;5029596;28;20536;-76
2022/07/28 06:10:19;;;;;;;6.90;1.53;;;19.50;71.30;;;19.64;87.64;100413.78;5044741;28;20044;-76
2022/07/28 06:12:49;;;;;;;3.15;1.30;;;19.50;71.10;;;19.68;85.59;100410.84;5029578;28;20843;-76
2022/07/28 06:15:24;;;;;;;7.70;2.20;;;19.60;70.70;;;19.50;94.07;100415.47;5029418;28;20057;-76
2022/07/28 06:17:54;;;;;;;3.33;1.38;;;19.60;72.30;;;19.61;89.47;100414.81;5030196;28;20503;-76
2022/07/28 06:20:23;;;;;;;4.50;1.60;;;19.60;71.40;;;19.69;85.13;100417.00;5046873;28;20055;-77
2022/07/28 06:22:54;;;;;;;7.20;1.73;;;19.60;70.70;;;19.77;86.57;100422.75;5029792;28;20551;-76
2022/07/28 06:25:27;;;;;;;2.67;1.80;;;19.60;70.90;;;19.91;87.29;100426.38;5032917;28;20088;-76
2022/07/28 06:28:01;;;;;;;5.25;1.75;;;19.70;71.30;;;19.91;86.52;100426.38;4993082;28;20049;-76
2022/07/28 06:30:30;;;;;;;4.78;1.67;;;19.80;71.10;;;19.94;89.22;100420.88;5025110;28;20048;-76
2022/07/28 06:32:57;;;;;;;5.43;1.65;;;19.70;71.60;;;19.88;87.98;100419.41;5010288;28;20068;-76
2022/07/28 06:35:25;;;;;;;5.55;2.05;;;19.90;71.50;;;20.01;88.19;100416.84;5025929;28;20041;-78
2022/07/28 06:37:53;;;;;;;4.68;1.88;;;19.90;71.50;;;20.09;87.31;100425.25;5009160;28;20048;-78
2022/07/28 06:40:21;;;;;;;5.45;1.35;;;19.90;71.30;;;20.00;91.43;100417.81;5028200;28;20048;-75
2022/07/28 06:42:48;;;;;;;5.53;1.75;;;20.00;71.90;;;20.04;86.57;100423.81;5009073;28;20096;-76
2022/07/28 06:45:17;;;;;;;4.20;1.73;;;20.00;71.10;;;20.26;82.59;100421.47;5025285;28;20049;-75
2022/07/28 06:47:48;;;;;;;3.78;1.48;;;20.10;70.60;;;20.44;81.66;100428.44;5009209;28;20128;-75
2022/07/28 06:50:16;;;;;;;4.32;1.95;;;20.20;70.50;;;20.51;80.27;100424.38;5025065;28;20407;-75
2022/07/28 06:52:56;;;;;;;7.50;2.15;;;20.30;70.10;;;20.69;80.11;100423.19;5026690;28;20772;-75
2022/07/28 06:55:25;;;;;;;3.53;1.73;;;20.40;70.20;;;20.80;77.71;100422.53;5025465;28;20042;-75
2022/07/28 06:58:02;;;;;;;6.97;1.92;;;20.60;69.90;;;20.98;77.72;100419.56;5025133;28;20050;-76
2022/07/28 07:00:29;;;;;;;6.45;1.92;;;20.70;70.00;;;21.17;75.65;100424.53;5024706;28;20049;-75
2022/07/28 07:02:56;;;;;;;5.22;1.85;;;20.80;69.70;;;21.15;73.49;100418.44;5025887;28;20041;-75
2022/07/28 07:05:24;;;;;;;3.92;1.67;;;20.90;69.10;;;21.22;74.80;100417.06;5038789;28;20049;-75
2022/07/28 07:07:51;;;;;;;4.50;2.10;;;21.00;69.30;;;21.30;74.81;100415.66;5027003;28;20072;-75
2022/07/28 07:10:18;;;;;;;4.82;2.13;;;21.10;69.30;;;21.50;74.34;100420.50;4996186;28;20136;-75
2022/07/28 07:12:46;;;;;;;4.80;2.28;;;21.20;69.50;;;21.48;73.07;100411.72;5044666;28;20049;-74
2022/07/28 07:15:13;;;;;;;4.15;1.60;;;21.20;69.10;;;21.51;73.18;100410.66;5048709;28;20040;-75
2022/07/28 07:17:40;;;;;;;5.63;2.10;;;21.30;69.10;;;21.55;74.06;100409.50;5048584;28;20043;-75
2022/07/28 07:20:09;;;;;;;8.60;2.28;;;21.30;69.10;;;21.66;74.70;100414.97;5050226;28;20463;-75
2022/07/28 07:22:44;;;;;;;4.35;2.03;;;21.30;69.30;;;21.73;72.39;100409.19;5049248;28;20090;-75
2022/07/28 07:25:15;;;;;;;5.47;2.38;;;21.40;68.90;;;21.78;74.86;100405.22;5037538;28;20060;-75
2022/07/28 07:27:43;;;;;;;5.05;2.22;;;21.40;69.40;;;21.83;71.31;100404.03;5045575;28;20144;-75
2022/07/28 07:30:12;;;;;;;4.00;1.80;;;21.60;68.70;;;21.92;72.22;100398.00;5045093;28;20041;-75
2022/07/28 07:32:40;;;;;;;6.00;2.03;;;21.60;68.90;;;22.01;71.29;100394.69;5046130;28;20071;-77
2022/07/28 07:35:08;;;;;;;3.85;1.90;;;21.70;68.90;;;22.14;70.86;100397.31;5033455;28;20056;-79
2022/07/28 07:37:35;;;;;;;6.05;2.20;;;21.80;68.80;;;22.21;70.31;100393.25;5033503;28;20505;-79
2022/07/28 07:40:05;;;;;;;4.05;1.80;;;21.80;68.70;;;22.26;69.28;100392.91;5032792;28;20830;-80
2022/07/28 07:42:32;;;;;;;5.57;2.22;;;21.90;68.40;;;22.43;68.97;100390.81;5016907;28;20064;-79
2022/07/28 07:44:59;;;;;;;4.72;2.17;;;22.10;68.50;;;22.59;67.45;100388.72;5049836;28;20136;-80
2022/07/28 07:47:27;;;;;;;4.68;1.80;;;22.20;68.30;;;22.62;65.89;100390.31;5034212;28;20486;-80
2022/07/28 07:49:54;;;;;;;2.67;2.05;;;22.30;67.80;;;22.70;65.49;100387.91;5032686;28;20080;-79
2022/07/28 07:52:21;;;;;;;8.25;2.63;;;22.40;67.60;;;22.70;64.93;100384.38;5049260;28;20037;-78
2022/07/28 07:54:48;;;;;;;5.00;3.00;;;22.40;67.40;;;22.86;65.11;100384.91;5040870;28;20120;-80
2022/07/28 07:57:15;;;;;;;2.65;2.00;;;22.50;67.50;;;22.89;65.57;100384.72;5012673;28;20140;-79
2022/07/28 07:59:42;;;;;;;3.67;2.00;;;22.60;67.50;;;22.97;65.22;100386.81;5029660;28;20045;-79
2022/07/28 08:02:09;;;;;;;3.53;2.33;;;22.70;67.50;;;22.93;64.79;100386.19;5013609;28;20073;-79
2022/07/28 08:04:36;;;;;;;4.85;2.17;;;22.70;67.20;;;23.08;64.28;100388.66;5031317;28;20071;-79
2022/07/28 08:07:05;;;;;;;8.10;2.03;;;22.80;67.30;;;23.19;63.13;100382.47;5035397;28;20041;-79
2022/07/28 08:09:33;;;;;;;3.47;2.50;;;22.80;67.10;;;23.23;63.16;100381.25;5033670;28;20065;-78
2022/07/28 08:12:00;;;;;;;4.78;2.47;;;22.90;67.10;;;23.33;61.52;100376.91;5028658;28;20042;-78
2022/07/28 08:14:27;;;;;;;6.85;2.70;;;23.00;66.70;;;23.47;62.93;100383.88;5012281;28;20053;-78
2022/07/28 08:16:55;;;;;;;6.50;2.67;;;23.10;67.10;;;23.49;62.10;100376.59;5012302;28;20133;-77
2022/07/28 08:19:22;;;;;;;5.88;2.55;;;23.20;66.90;;;23.62;61.77;100378.28;5027007;28;20045;-76
2022/07/28 08:21:50;;;;;;;3.97;2.33;;;23.20;66.90;;;23.59;62.55;100379.41;5011822;28;20083;-73
2022/07/28 08:24:18;;;;;;;6.00;2.85;;;23.30;66.90;;;23.46;61.62;100373.28;5031583;28;20841;-73
2022/07/28 08:26:59;;;;;;;5.63;2.38;;;23.30;66.50;;;23.44;62.35;100378.75;5047951;28;20135;-76
2022/07/28 08:29:26;;;;;;;22.35;3.78;;;23.20;66.60;;;23.48;62.85;100379.38;5047498;28;20506;-74
2022/07/28 08:31:53;;;;;;;8.55;3.65;;;23.20;66.60;;;23.49;62.08;100370.34;5047567;28;20683;-75
2022/07/28 08:34:20;;;;;;;5.47;2.30;;;23.20;66.60;;;23.46;62.35;100384.03;5044288;28;20048;-74
2022/07/28 08:37:01;;;;;;;3.88;3.40;;;23.20;66.60;;;23.57;63.16;100383.16;5047606;28;20037;-75
2022/07/28 08:39:30;;;;;;;4.70;2.93;;;23.20;66.80;;;23.63;64.29;100372.81;5047287;28;20091;-74
2022/07/28 08:42:24;;;;;;;4.68;2.95;;;23.30;67.20;;;23.70;62.95;100369.63;5047800;28;20051;-73
2022/07/28 08:44:59;;;;;;;5.63;3.25;;;23.30;67.40;;;23.82;63.39;100367.81;5047457;28;20075;-73
2022/07/28 08:47:31;;;;;;;6.75;2.97;;;23.40;67.00;;;23.90;61.23;100373.41;5031839;28;20059;-73
2022/07/28 08:50:12;;;;;;;3.83;2.78;;;23.50;66.50;;;23.96;59.87;100372.88;5047383;28;20049;-73
2022/07/28 08:52:44;;;;;;;6.32;2.90;;;23.60;66.20;;;23.96;61.93;100367.50;5047639;28;20075;-73
2022/07/28 08:55:12;;;;;;;5.43;2.92;;;23.60;66.70;;;24.05;61.28;100369.50;5035782;28;20069;-73
2022/07/28 08:57:45;;;;;;;4.65;2.78;;;23.70;66.70;;;24.16;60.96;100373.16;5027442;28;20040;-73
2022/07/28 09:00:13;;;;;;;6.88;3.53;;;23.80;66.60;;;24.14;62.35;100369.75;5028534;28;20046;-74
2022/07/28 09:02:45;;;;;;;5.55;3.00;;;23.80;66.80;;;24.16;60.14;100360.56;5027339;28;20042;-73
2022/07/28 09:05:22;;;;;;;5.07;3.05;;;23.80;66.20;;;24.30;60.37;100362.13;5027437;28;20072;-73
2022/07/28 09:07:53;;;;;;;4.60;3.15;;;23.90;66.50;;;24.30;59.48;100364.81;5027010;28;20111;-74
2022/07/28 09:10:22;;;;;;;5.05;2.92;;;23.90;66.10;;;24.42;59.71;100362.94;5026804;28;20056;-73
2022/07/28 09:12:49;;;;;;;4.28;2.83;;;24.00;66.20;;;24.47;60.18;100358.03;5026907;28;20502;-73
2022/07/28 09:15:16;;;;;;;6.20;2.90;;;24.10;66.30;;;24.45;57.86;100356.47;5026785;28;20052;-74
2022/07/28 09:17:44;;;;;;;5.00;2.90;;;24.10;65.70;;;24.45;58.54;100360.00;5043449;28;20049;-73
2022/07/28 09:20:12;;;;;;;4.95;3.45;;;24.10;65.70;;;24.53;58.75;100348.59;5026673;28;20409;-73
2022/07/28 09:23:03;;;;;;;5.88;3.47;;;24.20;65.90;;;24.68;57.84;100350.97;5010285;28;20064;-73
2022/07/28 09:25:32;;;;;;;4.03;3.00;;;24.20;65.80;;;24.70;59.15;100339.13;5040894;28;20094;-74
2022/07/28 09:28:17;;;;;;;5.30;2.95;;;24.30;66.10;;;24.78;57.97;100342.03;5046907;28;20080;-74
2022/07/28 09:30:48;;;;;;;4.13;2.90;;;24.40;65.90;;;24.92;57.53;100331.94;5047738;28;20040;-74
2022/07/28 09:33:31;;;;;;;6.10;2.85;;;24.40;65.70;;;25.10;60.17;100340.28;5046764;28;20044;-74
2022/07/28 09:36:14;;;;;;;5.03;3.17;;;24.60;66.70;;;25.15;56.36;100329.13;5032283;28;20037;-74
2022/07/28 09:38:42;;;;;;;5.65;2.83;;;24.70;65.50;;;25.30;55.82;100330.47;5042774;28;20288;-74
2022/07/28 09:41:10;;;;;;;6.38;3.15;;;24.80;65.50;;;25.37;55.64;100320.03;5045672;28;20075;-74
2022/07/28 09:43:43;;;;;;;4.60;3.28;;;24.90;65.40;;;25.42;55.35;100322.28;5045723;28;20045;-74
2022/07/28 09:46:18;;;;;;;6.93;3.00;;;25.00;65.20;;;25.53;53.78;100322.25;5030157;28;20045;-75
2022/07/28 09:48:54;;;;;;;4.95;2.85;;;25.00;64.60;;;25.66;54.94;100324.69;5046346;28;20098;-74
2022/07/28 09:51:34;;;;;;;3.65;2.92;;;25.20;65.20;;;25.79;54.41;100324.47;5046574;28;20037;-74
2022/07/28 09:54:18;;;;;;;6.10;2.88;;;25.30;65.20;;;25.91;53.45;100314.41;5045725;28;20099;-75
2022/07/28 09:56:46;;;;;;;3.80;3.15;;;25.40;64.90;;;26.03;52.77;100310.63;5042542;28;20610;-75
2022/07/28 09:59:13;;;;;;;4.93;3.15;;;25.50;64.60;;;26.12;51.32;100303.53;5043338;28;20047;-75
2022/07/28 10:01:59;;;;;;;4.30;2.87;;;25.70;64.30;;;26.27;52.26;100303.16;5043191;28;20072;-75
2022/07/28 10:04:40;;;;;;;4.13;2.80;;;25.70;64.60;;;26.40;52.29;100309.13;5042828;28;20804;-73
2022/07/28 10:07:14;;;;;;;6.20;3.13;;;25.90;64.60;;;26.54;50.57;100304.31;5043169;28;20598;-75
2022/07/28 10:09:42;;;;;;;5.80;2.90;;;26.00;64.00;;;26.59;50.66;100294.75;5029007;28;20120;-74
2022/07/28 10:12:23;;;;;;;3.50;2.80;;;26.10;64.00;;;26.75;47.69;100293.31;5034878;28;20045;-74
2022/07/28 10:14:54;;;;;;;4.55;2.80;;;26.30;63.00;;;26.89;47.96;100292.06;5033139;28;20053;-74
2022/07/28 10:17:33;;;;;;;5.53;2.55;;;26.30;63.00;;;27.07;47.97;100292.13;5030015;28;20076;-74
2022/07/28 10:20:04;;;;;;;3.65;2.70;;;26.50;63.10;;;27.24;47.27;100281.56;5047400;28;20127;-74
2022/07/28 10:22:36;;;;;;;4.85;2.97;;;26.60;62.90;;;27.42;46.27;100270.84;5045949;28;20131;-73
2022/07/28 10:25:11;;;;;;;4.38;2.90;;;26.80;62.60;;;27.64;45.72;100277.72;5034977;28;20519;-73
2022/07/28 10:27:43;;;;;;;6.93;3.45;;;27.00;62.20;;;27.83;43.63;100265.97;5045859;28;20053;-74
2022/07/28 10:30:12;;;;;;;3.85;2.55;;;27.20;61.30;;;28.06;43.36;100260.09;5045539;28;20053;-73
2022/07/28 10:32:43;;;;;;;3.60;2.28;;;27.40;61.30;;;28.22;42.33;100256.75;5029253;28;20131;-73
2022/07/28 10:35:14;;;;;;;3.40;2.63;;;27.60;60.60;;;28.42;42.14;100261.97;5045986;28;20037;-74